createdAt,value
2023-05-08T00:04:00.823Z,1.00
2023-05-08T00:09:03.739Z,1.00
2023-05-08T00:14:07.872Z,1.00
2023-05-08T00:19:10.567Z,1.00
2023-05-08T00:24:13.238Z,1.00
2023-05-08T00:29:17.217Z,1.00
2023-05-08T00:34:20.161Z,1.00
2023-05-08T00:39:22.795Z,1.00
2023-05-08T00:44:26.870Z,1.00
2023-05-08T00:49:29.622Z,11.00
2023-05-08T00:54:32.632Z,70.40
2023-05-08T00:59:37.714Z,46.60
2023-05-08T01:04:41.611Z,99.90
2023-05-08T01:09:44.248Z,99.90
2023-05-08T01:15:05.215Z,99.90
2023-05-08T01:20:20.112Z,99.90
2023-05-08T01:25:47.280Z,83.90
2023-05-08T01:31:09.043Z,96.30
2023-05-08T01:36:21.943Z,99.90
2023-05-08T01:41:28.344Z,99.90
2023-05-08T01:46:34.622Z,99.90
2023-05-08T01:51:42.594Z,99.90
2023-05-08T01:56:48.647Z,99.90
2023-05-08T02:01:54.860Z,99.90
2023-05-08T02:06:59.776Z,99.90
2023-05-08T02:12:03.857Z,99.90
2023-05-08T02:17:09.353Z,99.90
2023-05-08T02:22:16.090Z,99.90
2023-05-08T02:27:19.570Z,99.90
2023-05-08T02:32:24.112Z,99.90
2023-05-08T02:37:29.328Z,99.90
2023-05-08T02:42:32.118Z,99.90
2023-05-08T02:47:44.338Z,38.10
2023-05-08T02:52:51.704Z,1.00
2023-05-08T02:58:04.001Z,1.00
2023-05-08T03:03:13.120Z,5.50
2023-05-08T03:08:21.654Z,24.20
2023-05-08T03:13:24.705Z,76.50
2023-05-08T03:18:31.849Z,97.40
2023-05-08T03:23:37.895Z,99.90
2023-05-08T03:28:41.124Z,99.90
2023-05-08T03:33:44.989Z,99.90
2023-05-08T03:38:49.860Z,99.90
2023-05-08T03:43:52.731Z,99.90
2023-05-08T03:48:55.703Z,99.90
2023-05-08T03:53:59.712Z,99.90
2023-05-08T03:59:14.668Z,99.90
2023-05-08T04:04:20.022Z,99.90
2023-05-08T04:09:28.958Z,99.90
2023-05-08T04:14:37.496Z,99.90
2023-05-08T04:19:46.115Z,90.20
2023-05-08T04:24:52.277Z,1.00
2023-05-08T04:29:56.365Z,1.00
2023-05-08T04:35:00.279Z,1.00
2023-05-08T04:40:05.196Z,1.00
2023-05-08T04:45:08.734Z,1.00
2023-05-08T04:50:12.341Z,1.00
2023-05-08T04:55:16.492Z,99.90
2023-05-08T05:00:20.068Z,99.90
2023-05-08T05:05:22.776Z,99.90
2023-05-08T05:10:26.757Z,1.00
2023-05-08T05:15:29.464Z,99.90
2023-05-08T05:20:32.524Z,99.90
2023-05-08T05:25:37.662Z,1.00
2023-05-08T05:30:40.741Z,99.90
2023-05-08T05:35:43.387Z,99.90
2023-05-08T05:40:47.345Z,1.00
2023-05-08T05:45:50.072Z,1.00
2023-05-08T05:50:52.723Z,1.00
2023-05-08T05:55:56.957Z,1.00
2023-05-08T06:01:01.304Z,1.00
2023-05-08T06:06:04.569Z,99.90
2023-05-08T06:11:08.692Z,1.00
2023-05-08T06:16:11.929Z,99.90
2023-05-08T06:21:14.672Z,99.90
2023-05-08T06:26:18.663Z,1.00
2023-05-08T06:31:21.654Z,1.00
2023-05-08T06:36:24.371Z,1.00
2023-05-08T06:41:28.319Z,1.00
2023-05-08T06:46:31.011Z,1.00
2023-05-08T06:51:35.495Z,1.00
2023-05-08T06:56:39.472Z,99.90
2023-05-08T07:01:42.632Z,1.00
2023-05-08T07:06:45.306Z,1.00
2023-05-08T07:11:49.257Z,1.00
2023-05-08T07:16:51.889Z,1.00
2023-05-08T07:21:54.579Z,99.90
2023-05-08T07:26:59.621Z,99.90
2023-05-08T07:32:02.338Z,99.90
2023-05-08T07:37:05.045Z,99.90
2023-05-08T07:42:09.179Z,1.00
2023-05-08T07:47:12.549Z,1.00
2023-05-08T07:52:15.251Z,1.00
2023-05-08T07:57:19.234Z,1.00
2023-05-08T08:02:21.926Z,1.00
2023-05-08T08:07:24.723Z,1.00
2023-05-08T08:12:29.268Z,1.00
2023-05-08T08:17:32.107Z,1.00
2023-05-08T08:22:36.479Z,1.00
2023-05-08T08:27:40.566Z,1.00
2023-05-08T08:32:43.306Z,1.00
2023-05-08T08:37:46.031Z,1.00
2023-05-08T08:42:50.072Z,1.00
2023-05-08T08:47:53.938Z,1.00
2023-05-08T08:53:02.000Z,99.90
2023-05-08T08:58:14.591Z,99.90
2023-05-08T09:03:17.534Z,99.90
2023-05-08T09:08:20.377Z,99.90
2023-05-08T09:13:24.530Z,99.90
2023-05-08T09:18:27.490Z,99.90
2023-05-08T09:23:30.167Z,99.90
2023-05-08T09:28:34.164Z,99.90
2023-05-08T09:33:45.536Z,99.90
2023-05-08T09:38:48.168Z,99.90
2023-05-08T09:44:02.896Z,99.90
2023-05-08T09:49:05.557Z,99.90
2023-05-08T09:54:18.895Z,99.90
2023-05-08T09:59:28.231Z,99.90
2023-05-08T10:04:34.256Z,99.90
2023-05-08T10:09:49.868Z,99.90
2023-05-08T10:14:55.234Z,99.90
2023-05-08T10:20:01.913Z,99.90
2023-05-08T10:25:08.725Z,99.90
2023-05-08T10:30:17.107Z,99.90
2023-05-08T10:35:20.137Z,99.90
2023-05-08T10:40:23.675Z,99.90
2023-05-08T10:45:29.793Z,99.90
2023-05-08T10:50:43.265Z,99.90
2023-05-08T10:55:48.503Z,97.30
2023-05-08T11:01:17.806Z,97.80
2023-05-08T11:06:44.289Z,99.90
2023-05-08T11:11:55.681Z,98.60
2023-05-08T11:17:08.340Z,90.70
2023-05-08T11:22:23.531Z,88.00
2023-05-08T11:27:33.767Z,90.50
2023-05-08T11:33:06.955Z,87.10
2023-05-08T11:38:17.261Z,91.60
2023-05-08T11:43:27.945Z,92.70
2023-05-08T11:48:32.412Z,89.80
2023-05-08T11:53:36.930Z,86.70
2023-05-08T11:58:39.577Z,75.40
2023-05-08T12:03:43.683Z,61.10
2023-05-08T12:08:46.456Z,54.90
2023-05-08T12:13:51.601Z,58.40
2023-05-08T12:18:58.081Z,60.00
2023-05-08T12:24:01.414Z,60.10
2023-05-08T12:29:07.346Z,57.30
2023-05-08T12:34:11.491Z,54.70
2023-05-08T12:39:15.886Z,43.80
2023-05-08T12:44:23.518Z,30.30
2023-05-08T12:49:31.821Z,35.50
2023-05-08T12:54:39.750Z,47.20
2023-05-08T12:59:43.112Z,50.80
2023-05-08T13:04:47.466Z,32.70
2023-05-08T13:10:09.091Z,26.90
2023-05-08T13:15:11.971Z,22.70
2023-05-08T13:20:16.522Z,23.70
2023-05-08T13:25:19.336Z,22.40
2023-05-08T13:30:22.889Z,22.40
2023-05-08T13:35:28.366Z,23.30
2023-05-08T13:40:31.298Z,22.20
2023-05-08T13:45:34.013Z,22.20
2023-05-08T13:50:38.047Z,20.00
2023-05-08T13:55:42.238Z,21.00
2023-05-08T14:00:45.410Z,24.30
2023-05-08T14:05:49.397Z,21.80
2023-05-08T14:10:52.595Z,19.60
2023-05-08T14:15:55.388Z,18.30
2023-05-08T14:20:59.350Z,22.70
2023-05-08T14:26:02.072Z,26.40
2023-05-08T14:31:04.820Z,28.70
2023-05-08T14:36:09.982Z,25.70
2023-05-08T14:41:12.676Z,25.50
2023-05-08T14:46:15.408Z,24.70
2023-05-08T14:51:19.620Z,27.20
2023-05-08T14:56:24.497Z,32.20
2023-05-08T15:01:27.596Z,35.10
2023-05-08T15:06:32.893Z,33.10
2023-05-08T15:11:35.690Z,33.50
2023-05-08T15:16:38.491Z,47.50
2023-05-08T15:21:42.995Z,53.30
2023-05-08T15:26:45.742Z,56.90
2023-05-08T15:31:48.522Z,65.40
2023-05-08T15:36:52.555Z,75.40
2023-05-08T15:41:55.308Z,86.90
2023-05-08T15:46:58.074Z,93.30
2023-05-08T15:52:02.078Z,95.30
2023-05-08T15:57:04.940Z,99.90
2023-05-08T16:02:08.529Z,99.40
2023-05-08T16:07:12.610Z,99.20
2023-05-08T16:12:15.341Z,99.40
2023-05-08T16:17:18.262Z,99.90
2023-05-08T16:22:23.133Z,99.90
2023-05-08T16:27:25.790Z,99.90
2023-05-08T16:32:28.514Z,99.90
2023-05-08T16:37:32.603Z,99.90
2023-05-08T16:42:35.514Z,99.90
2023-05-08T16:47:38.232Z,99.90
2023-05-08T16:52:42.206Z,99.90
2023-05-08T16:57:44.839Z,99.90
2023-05-08T17:02:47.619Z,99.90
2023-05-08T17:07:51.861Z,99.90
2023-05-08T17:12:54.548Z,99.90
2023-05-08T17:17:57.386Z,99.90
2023-05-08T17:23:01.470Z,99.90
2023-05-08T17:28:05.011Z,99.90
2023-05-08T17:33:08.041Z,99.90
2023-05-08T17:38:12.074Z,99.90
2023-05-08T17:43:14.769Z,99.90
2023-05-08T17:48:17.422Z,99.90
2023-05-08T17:53:21.415Z,99.90
2023-05-08T17:58:24.114Z,99.90
2023-05-08T18:03:26.912Z,99.90
2023-05-08T18:08:30.951Z,99.90
2023-05-08T18:13:34.696Z,99.90
2023-05-08T18:18:37.393Z,99.90
2023-05-08T18:23:41.417Z,99.90
2023-05-08T18:28:45.065Z,99.90
2023-05-08T18:33:47.858Z,99.90
2023-05-08T18:38:51.858Z,99.90
2023-05-08T18:43:54.616Z,99.90
2023-05-08T18:48:57.299Z,1.00
2023-05-08T18:54:01.542Z,1.00
2023-05-08T18:59:04.292Z,1.00
2023-05-08T19:04:07.083Z,1.00
2023-05-08T19:09:11.245Z,1.00
2023-05-08T19:14:14.269Z,1.00
2023-05-08T19:19:16.953Z,1.00
2023-05-08T19:24:24.041Z,1.00
2023-05-08T19:29:26.914Z,1.00
2023-05-08T19:34:32.125Z,1.00
2023-05-08T19:39:38.222Z,1.00
2023-05-08T19:44:40.988Z,1.00
2023-05-08T19:49:43.811Z,1.00
2023-05-08T19:54:47.858Z,1.00
2023-05-08T19:59:50.600Z,1.00
2023-05-08T20:05:21.091Z,1.00
2023-05-08T20:10:17.324Z,33.60
2023-05-08T20:15:20.539Z,44.00
2023-05-08T20:20:23.469Z,99.40
2023-05-08T20:25:27.670Z,99.90
2023-05-08T20:30:30.360Z,99.90
2023-05-08T20:35:33.460Z,99.90
2023-05-08T20:40:37.628Z,99.90
2023-05-08T20:45:40.331Z,99.90
2023-05-08T20:50:43.021Z,99.90
2023-05-08T20:55:47.008Z,99.90
2023-05-08T21:00:49.825Z,1.00
2023-05-08T21:05:52.676Z,1.00
2023-05-08T21:10:56.770Z,1.00
2023-05-08T21:15:59.497Z,1.00
2023-05-08T21:21:02.176Z,1.00
2023-05-08T21:26:06.320Z,1.00
2023-05-08T21:31:09.054Z,1.00
2023-05-08T21:36:11.698Z,1.00
2023-05-08T21:41:15.838Z,1.00
2023-05-08T21:46:18.554Z,1.00
2023-05-08T21:51:21.410Z,99.90
2023-05-08T21:56:25.626Z,99.90
2023-05-08T22:01:28.340Z,99.90
2023-05-08T22:06:31.543Z,99.90
2023-05-08T22:11:35.567Z,99.90
2023-05-08T22:16:38.413Z,99.90
2023-05-08T22:21:41.781Z,99.90
2023-05-08T22:26:45.893Z,99.90
2023-05-08T22:31:48.590Z,99.90
2023-05-08T22:36:51.252Z,99.90
2023-05-08T22:41:55.391Z,90.20
2023-05-08T22:46:59.114Z,33.80
2023-05-08T22:52:01.760Z,15.70
2023-05-08T22:57:05.783Z,49.50
2023-05-08T23:02:08.561Z,82.70
2023-05-08T23:07:11.272Z,34.10
2023-05-08T23:12:15.247Z,1.00
2023-05-08T23:17:17.908Z,1.00
2023-05-08T23:22:20.642Z,1.00
2023-05-08T23:27:24.623Z,1.00
2023-05-08T23:32:27.500Z,1.00
2023-05-08T23:37:30.174Z,1.00
2023-05-08T23:42:34.213Z,1.00
2023-05-08T23:47:36.924Z,1.00
2023-05-08T23:52:39.585Z,1.00
2023-05-08T23:57:43.571Z,1.00
